sensor_id;sensor_type;location;lat;lon;timestamp;pressure;altitude;pressure_sealevel;temperature;humidity
43621;BME280;29213;50.770;7.298;2023-02-19T00:01:13;101146.44;;;8.65;68.47
43621;BME280;29213;50.770;7.298;2023-02-19T00:03:38;101023.63;;;8.02;68.00
43621;BME280;29213;50.770;7.298;2023-02-19T00:06:06;101157.63;;;8.78;68.16
43621;BME280;29213;50.770;7.298;2023-02-19T00:08:34;101138.47;;;8.65;68.70
43621;BME280;29213;50.770;7.298;2023-02-19T00:11:08;101088.53;;;8.29;68.33
43621;BME280;29213;50.770;7.298;2023-02-19T00:13:36;101138.47;;;8.55;68.83
43621;BME280;29213;50.770;7.298;2023-02-19T00:18:31;101171.47;;;8.82;68.97
43621;BME280;29213;50.770;7.298;2023-02-19T00:20:57;101085.19;;;8.27;68.86
43621;BME280;29213;50.770;7.298;2023-02-19T00:23:22;100914.59;;;7.25;68.55
43621;BME280;29213;50.770;7.298;2023-02-19T00:25:48;100956.94;;;7.56;68.96
43621;BME280;29213;50.770;7.298;2023-02-19T00:28:13;101130.75;;;8.52;69.24
43621;BME280;29213;50.770;7.298;2023-02-19T00:30:38;101141.38;;;8.52;69.79
43621;BME280;29213;50.770;7.298;2023-02-19T00:33:04;101115.50;;;8.34;69.49
43621;BME280;29213;50.770;7.298;2023-02-19T00:35:32;101160.53;;;8.65;69.61
43621;BME280;29213;50.770;7.298;2023-02-19T00:37:58;101051.13;;;8.01;69.26
43621;BME280;29213;50.770;7.298;2023-02-19T00:40:23;101147.53;;;8.62;69.98
43621;BME280;29213;50.770;7.298;2023-02-19T00:42:50;101132.28;;;8.54;69.67
43621;BME280;29213;50.770;7.298;2023-02-19T00:45:16;101076.50;;;8.25;69.74
43621;BME280;29213;50.770;7.298;2023-02-19T00:47:41;101106.84;;;8.32;69.75
43621;BME280;29213;50.770;7.298;2023-02-19T00:50:07;101077.16;;;8.07;70.12
43621;BME280;29213;50.770;7.298;2023-02-19T00:52:32;101070.31;;;8.14;70.03
43621;BME280;29213;50.770;7.298;2023-02-19T00:54:58;101042.31;;;7.90;70.08
43621;BME280;29213;50.770;7.298;2023-02-19T00:57:23;101071.72;;;8.09;70.04
43621;BME280;29213;50.770;7.298;2023-02-19T00:59:49;101124.00;;;8.38;70.23
43621;BME280;29213;50.770;7.298;2023-02-19T01:02:14;101085.53;;;8.12;70.67
43621;BME280;29213;50.770;7.298;2023-02-19T01:04:39;101048.41;;;7.81;70.78
43621;BME280;29213;50.770;7.298;2023-02-19T01:07:05;100994.19;;;7.54;70.60
43621;BME280;29213;50.770;7.298;2023-02-19T01:09:30;101097.34;;;7.98;71.38
43621;BME280;29213;50.770;7.298;2023-02-19T01:11:56;101059.75;;;7.83;71.11
43621;BME280;29213;50.770;7.298;2023-02-19T01:14:21;101114.59;;;8.14;71.38
43621;BME280;29213;50.770;7.298;2023-02-19T01:16:46;101141.34;;;8.32;71.51
43621;BME280;29213;50.770;7.298;2023-02-19T01:19:12;101027.59;;;7.67;71.16
43621;BME280;29213;50.770;7.298;2023-02-19T01:21:38;100992.88;;;7.39;71.42
43621;BME280;29213;50.770;7.298;2023-02-19T01:24:04;101066.69;;;7.74;72.58
43621;BME280;29213;50.770;7.298;2023-02-19T01:26:31;101123.28;;;7.95;72.91
43621;BME280;29213;50.770;7.298;2023-02-19T01:29:00;101058.47;;;7.46;73.03
43621;BME280;29213;50.770;7.298;2023-02-19T01:31:27;101108.28;;;7.84;72.89
43621;BME280;29213;50.770;7.298;2023-02-19T01:33:55;101122.31;;;7.96;72.70
43621;BME280;29213;50.770;7.298;2023-02-19T01:36:22;101091.53;;;7.73;72.32
43621;BME280;29213;50.770;7.298;2023-02-19T01:38:48;101108.59;;;7.90;72.24
43621;BME280;29213;50.770;7.298;2023-02-19T01:41:16;101077.06;;;7.87;71.83
43621;BME280;29213;50.770;7.298;2023-02-19T01:44:02;101118.81;;;8.26;71.10
43621;BME280;29213;50.770;7.298;2023-02-19T01:46:33;101064.06;;;7.84;71.29
43621;BME280;29213;50.770;7.298;2023-02-19T01:49:12;101099.50;;;8.14;71.32
43621;BME280;29213;50.770;7.298;2023-02-19T01:51:48;101056.00;;;7.96;70.77
43621;BME280;29213;50.770;7.298;2023-02-19T01:54:18;101052.50;;;7.95;70.56
43621;BME280;29213;50.770;7.298;2023-02-19T01:56:46;100841.59;;;6.69;70.38
43621;BME280;29213;50.770;7.298;2023-02-19T01:59:13;101037.19;;;7.99;70.18
43621;BME280;29213;50.770;7.298;2023-02-19T02:01:39;101104.59;;;8.37;70.09
43621;BME280;29213;50.770;7.298;2023-02-19T02:04:07;101110.75;;;8.38;70.63
43621;BME280;29213;50.770;7.298;2023-02-19T02:06:51;101111.03;;;8.45;70.59
43621;BME280;29213;50.770;7.298;2023-02-19T02:09:18;101111.31;;;8.51;69.95
43621;BME280;29213;50.770;7.298;2023-02-19T02:12:03;101049.59;;;7.98;70.17
43621;BME280;29213;50.770;7.298;2023-02-19T02:14:32;101064.72;;;8.08;70.30
43621;BME280;29213;50.770;7.298;2023-02-19T02:22:59;101114.19;;;8.28;70.96
43621;BME280;29213;50.770;7.298;2023-02-19T02:25:44;101099.69;;;8.23;70.73
43621;BME280;29213;50.770;7.298;2023-02-19T02:31:13;101115.19;;;8.37;70.35
43621;BME280;29213;50.770;7.298;2023-02-19T02:33:50;100995.78;;;7.67;70.60
43621;BME280;29213;50.770;7.298;2023-02-19T02:36:32;101056.34;;;8.12;70.43
43621;BME280;29213;50.770;7.298;2023-02-19T02:39:01;101111.03;;;8.45;70.21
43621;BME280;29213;50.770;7.298;2023-02-19T02:41:31;101010.91;;;7.86;70.05
43621;BME280;29213;50.770;7.298;2023-02-19T02:43:56;101074.94;;;8.12;70.47
43621;BME280;29213;50.770;7.298;2023-02-19T02:46:27;101092.69;;;8.22;70.32
43621;BME280;29213;50.770;7.298;2023-02-19T02:48:56;101099.25;;;8.27;70.41
43621;BME280;29213;50.770;7.298;2023-02-19T02:51:32;101069.19;;;8.07;70.48
43621;BME280;29213;50.770;7.298;2023-02-19T02:54:03;101097.28;;;8.20;70.70
43621;BME280;29213;50.770;7.298;2023-02-19T02:56:49;101062.44;;;8.03;70.31
43621;BME280;29213;50.770;7.298;2023-02-19T02:59:19;101021.59;;;7.74;70.58
43621;BME280;29213;50.770;7.298;2023-02-19T03:02:03;101102.03;;;8.16;70.68
43621;BME280;29213;50.770;7.298;2023-02-19T03:04:55;101027.47;;;7.78;70.51
43621;BME280;29213;50.770;7.298;2023-02-19T03:07:46;101058.97;;;8.02;70.65
43621;BME280;29213;50.770;7.298;2023-02-19T03:10:18;101092.84;;;8.30;70.39
43621;BME280;29213;50.770;7.298;2023-02-19T03:12:44;100969.66;;;7.62;70.01
43621;BME280;29213;50.770;7.298;2023-02-19T03:15:34;100952.66;;;7.23;70.90
43621;BME280;29213;50.770;7.298;2023-02-19T03:18:22;101100.34;;;8.05;71.35
43621;BME280;29213;50.770;7.298;2023-02-19T03:21:07;101106.53;;;7.94;73.44
43621;BME280;29213;50.770;7.298;2023-02-19T03:23:34;100885.38;;;6.52;74.84
43621;BME280;29213;50.770;7.298;2023-02-19T03:26:20;101063.81;;;7.56;74.79
43621;BME280;29213;50.770;7.298;2023-02-19T03:28:48;101008.38;;;7.12;74.28
43621;BME280;29213;50.770;7.298;2023-02-19T03:31:34;101000.47;;;7.22;73.25
43621;BME280;29213;50.770;7.298;2023-02-19T03:34:04;101103.50;;;7.99;72.74
43621;BME280;29213;50.770;7.298;2023-02-19T03:36:38;101099.78;;;7.80;73.11
43621;BME280;29213;50.770;7.298;2023-02-19T03:39:06;101120.50;;;7.96;72.59
43621;BME280;29213;50.770;7.298;2023-02-19T03:41:47;101113.34;;;7.87;72.90
43621;BME280;29213;50.770;7.298;2023-02-19T03:44:40;101052.31;;;7.46;72.69
43621;BME280;29213;50.770;7.298;2023-02-19T03:47:17;101126.84;;;7.84;73.09
43621;BME280;29213;50.770;7.298;2023-02-19T03:49:51;101125.84;;;7.75;73.86
43621;BME280;29213;50.770;7.298;2023-02-19T03:52:38;101131.22;;;7.85;73.16
43621;BME280;29213;50.770;7.298;2023-02-19T03:55:11;101089.22;;;7.59;73.29
43621;BME280;29213;50.770;7.298;2023-02-19T03:57:52;101129.81;;;7.90;72.81
43621;BME280;29213;50.770;7.298;2023-02-19T04:00:29;101139.69;;;7.79;73.58
43621;BME280;29213;50.770;7.298;2023-02-19T04:03:10;101087.94;;;7.32;73.78
43621;BME280;29213;50.770;7.298;2023-02-19T04:05:44;101107.78;;;7.59;73.04
43621;BME280;29213;50.770;7.298;2023-02-19T04:08:15;101081.53;;;7.34;73.20
43621;BME280;29213;50.770;7.298;2023-02-19T04:10:41;101144.16;;;7.78;73.19
43621;BME280;29213;50.770;7.298;2023-02-19T04:13:14;101025.34;;;7.09;72.46
43621;BME280;29213;50.770;7.298;2023-02-19T04:15:43;100986.91;;;6.94;72.06
43621;BME280;29213;50.770;7.298;2023-02-19T04:18:31;101152.28;;;7.86;72.45
43621;BME280;29213;50.770;7.298;2023-02-19T04:20:58;101131.94;;;7.66;72.66
43621;BME280;29213;50.770;7.298;2023-02-19T04:23:26;101116.78;;;7.46;72.60
43621;BME280;29213;50.770;7.298;2023-02-19T04:25:58;101170.66;;;7.78;72.71
43621;BME280;29213;50.770;7.298;2023-02-19T04:28:24;101092.91;;;7.25;72.81
43621;BME280;29213;50.770;7.298;2023-02-19T04:30:49;101128.03;;;7.39;72.57
43621;BME280;29213;50.770;7.298;2023-02-19T04:33:15;101147.41;;;7.60;72.03
43621;BME280;29213;50.770;7.298;2023-02-19T04:35:40;101150.59;;;7.54;72.24
43621;BME280;29213;50.770;7.298;2023-02-19T04:38:05;101078.34;;;7.09;72.68
43621;BME280;29213;50.770;7.298;2023-02-19T04:40:31;101095.56;;;7.25;72.33
43621;BME280;29213;50.770;7.298;2023-02-19T04:42:56;101176.03;;;7.67;73.51
43621;BME280;29213;50.770;7.298;2023-02-19T04:45:21;101005.31;;;6.74;72.68
43621;BME280;29213;50.770;7.298;2023-02-19T04:47:47;100971.81;;;6.63;71.91
43621;BME280;29213;50.770;7.298;2023-02-19T04:50:12;101198.09;;;7.88;71.62
43621;BME280;29213;50.770;7.298;2023-02-19T04:52:38;101036.09;;;6.87;71.57
43621;BME280;29213;50.770;7.298;2023-02-19T04:55:04;101098.22;;;7.25;71.41
43621;BME280;29213;50.770;7.298;2023-02-19T04:57:30;101176.75;;;7.69;71.34
43621;BME280;29213;50.770;7.298;2023-02-19T04:59:55;101159.28;;;7.66;71.30
43621;BME280;29213;50.770;7.298;2023-02-19T05:02:21;101169.44;;;7.82;71.11
43621;BME280;29213;50.770;7.298;2023-02-19T05:04:46;101135.81;;;7.61;70.62
43621;BME280;29213;50.770;7.298;2023-02-19T05:07:12;101144.84;;;7.49;71.04
43621;BME280;29213;50.770;7.298;2023-02-19T05:09:37;101216.44;;;8.01;71.08
43621;BME280;29213;50.770;7.298;2023-02-19T05:12:03;101157.03;;;7.61;70.95
43621;BME280;29213;50.770;7.298;2023-02-19T05:14:28;101169.19;;;7.64;71.06
43621;BME280;29213;50.770;7.298;2023-02-19T05:16:53;101103.50;;;7.25;70.95
43621;BME280;29213;50.770;7.298;2023-02-19T05:19:19;101021.00;;;6.66;71.37
43621;BME280;29213;50.770;7.298;2023-02-19T05:21:44;101186.53;;;7.68;71.92
43621;BME280;29213;50.770;7.298;2023-02-19T05:24:10;101160.47;;;7.52;71.77
43621;BME280;29213;50.770;7.298;2023-02-19T05:26:35;101183.59;;;7.71;71.46
43621;BME280;29213;50.770;7.298;2023-02-19T05:29:01;101225.00;;;8.05;71.31
43621;BME280;29213;50.770;7.298;2023-02-19T05:31:27;101217.75;;;8.07;70.79
43621;BME280;29213;50.770;7.298;2023-02-19T05:33:56;101179.97;;;7.72;70.95
43621;BME280;29213;50.770;7.298;2023-02-19T05:36:22;101227.31;;;7.98;70.66
43621;BME280;29213;50.770;7.298;2023-02-19T05:38:52;101218.28;;;7.80;70.88
43621;BME280;29213;50.770;7.298;2023-02-19T05:41:21;101095.72;;;6.91;71.76
43621;BME280;29213;50.770;7.298;2023-02-19T05:43:48;101239.22;;;7.83;71.69
43621;BME280;29213;50.770;7.298;2023-02-19T05:46:16;101240.25;;;7.70;71.83
43621;BME280;29213;50.770;7.298;2023-02-19T05:48:42;101034.41;;;6.41;71.75
43621;BME280;29213;50.770;7.298;2023-02-19T05:51:13;101235.88;;;7.59;71.51
43621;BME280;29213;50.770;7.298;2023-02-19T05:53:40;101254.81;;;7.76;71.82
43621;BME280;29213;50.770;7.298;2023-02-19T05:58:49;101149.28;;;6.94;71.95
43621;BME280;29213;50.770;7.298;2023-02-19T06:01:16;101235.41;;;7.54;71.70
43621;BME280;29213;50.770;7.298;2023-02-19T06:03:41;101268.38;;;7.61;71.38
43621;BME280;29213;50.770;7.298;2023-02-19T06:06:09;101186.94;;;7.09;71.93
43621;BME280;29213;50.770;7.298;2023-02-19T06:08:35;101160.38;;;6.88;71.87
43621;BME280;29213;50.770;7.298;2023-02-19T06:11:02;100990.09;;;5.67;72.11
43621;BME280;29213;50.770;7.298;2023-02-19T06:13:27;101235.66;;;7.18;71.99
43621;BME280;29213;50.770;7.298;2023-02-19T06:15:53;101245.78;;;7.13;72.25
43621;BME280;29213;50.770;7.298;2023-02-19T06:18:18;101212.00;;;6.94;72.31
43621;BME280;29213;50.770;7.298;2023-02-19T06:20:43;101242.75;;;7.18;71.87
43621;BME280;29213;50.770;7.298;2023-02-19T06:23:09;101308.03;;;7.63;71.68
43621;BME280;29213;50.770;7.298;2023-02-19T06:25:34;101230.72;;;7.14;71.77
43621;BME280;29213;50.770;7.298;2023-02-19T06:27:59;101227.47;;;7.10;71.39
43621;BME280;29213;50.770;7.298;2023-02-19T06:30:25;101285.16;;;7.50;70.97
43621;BME280;29213;50.770;7.298;2023-02-19T06:32:51;101264.31;;;7.25;71.52
43621;BME280;29213;50.770;7.298;2023-02-19T06:35:18;101303.09;;;7.58;71.24
43621;BME280;29213;50.770;7.298;2023-02-19T06:37:46;101226.06;;;7.06;71.13
43621;BME280;29213;50.770;7.298;2023-02-19T06:40:11;101255.25;;;7.27;71.82
43621;BME280;29213;50.770;7.298;2023-02-19T06:42:37;101312.28;;;7.54;71.68
43621;BME280;29213;50.770;7.298;2023-02-19T06:45:02;101311.31;;;7.55;71.62
43621;BME280;29213;50.770;7.298;2023-02-19T06:47:31;101213.47;;;6.87;71.69
43621;BME280;29213;50.770;7.298;2023-02-19T06:49:58;101254.00;;;6.99;72.00
43621;BME280;29213;50.770;7.298;2023-02-19T06:52:23;101310.41;;;7.33;71.99
43621;BME280;29213;50.770;7.298;2023-02-19T06:54:48;101236.47;;;6.86;71.80
43621;BME280;29213;50.770;7.298;2023-02-19T06:57:14;101278.41;;;7.14;71.48
43621;BME280;29213;50.770;7.298;2023-02-19T06:59:39;101189.22;;;6.59;71.34
43621;BME280;29213;50.770;7.298;2023-02-19T07:02:05;101249.56;;;6.99;70.91
43621;BME280;29213;50.770;7.298;2023-02-19T07:04:30;101063.38;;;5.65;71.08
43621;BME280;29213;50.770;7.298;2023-02-19T07:06:56;101286.53;;;7.01;71.46
43621;BME280;29213;50.770;7.298;2023-02-19T07:09:21;101268.00;;;6.89;72.25
43621;BME280;29213;50.770;7.298;2023-02-19T07:11:47;101324.09;;;7.50;71.82
43621;BME280;29213;50.770;7.298;2023-02-19T07:14:14;101189.81;;;7.06;71.11
43621;BME280;29213;50.770;7.298;2023-02-19T07:16:40;101337.13;;;8.07;70.36
43621;BME280;29213;50.770;7.298;2023-02-19T07:19:05;101300.97;;;8.06;68.68
43621;BME280;29213;50.770;7.298;2023-02-19T07:21:30;101328.69;;;8.02;68.80
43621;BME280;29213;50.770;7.298;2023-02-19T07:23:56;101330.19;;;7.95;68.61
43621;BME280;29213;50.770;7.298;2023-02-19T07:26:22;101347.81;;;7.84;68.59
43621;BME280;29213;50.770;7.298;2023-02-19T07:28:49;101319.59;;;7.62;69.07
43621;BME280;29213;50.770;7.298;2023-02-19T07:31:16;101302.53;;;7.43;69.23
43621;BME280;29213;50.770;7.298;2023-02-19T07:33:43;101348.03;;;7.60;69.17
43621;BME280;29213;50.770;7.298;2023-02-19T07:36:09;101387.50;;;7.86;69.17
43621;BME280;29213;50.770;7.298;2023-02-19T07:38:35;101366.34;;;7.63;69.33
43621;BME280;29213;50.770;7.298;2023-02-19T07:41:02;101392.44;;;7.79;69.07
43621;BME280;29213;50.770;7.298;2023-02-19T07:43:30;101402.53;;;7.85;69.10
43621;BME280;29213;50.770;7.298;2023-02-19T07:45:56;101378.03;;;7.60;69.29
43621;BME280;29213;50.770;7.298;2023-02-19T07:48:22;101420.09;;;7.65;69.68
43621;BME280;29213;50.770;7.298;2023-02-19T07:53:17;101389.66;;;7.25;70.38
43621;BME280;29213;50.770;7.298;2023-02-19T07:55:42;101388.59;;;7.05;71.34
43621;BME280;29213;50.770;7.298;2023-02-19T07:58:08;101279.28;;;6.34;71.68
43621;BME280;29213;50.770;7.298;2023-02-19T08:00:33;101432.91;;;7.37;71.48
43621;BME280;29213;50.770;7.298;2023-02-19T08:02:58;101425.06;;;7.24;71.70
43621;BME280;29213;50.770;7.298;2023-02-19T08:05:24;101419.44;;;7.29;71.76
43621;BME280;29213;50.770;7.298;2023-02-19T08:07:50;101437.09;;;7.40;71.33
43621;BME280;29213;50.770;7.298;2023-02-19T08:10:15;101407.75;;;7.20;71.77
43621;BME280;29213;50.770;7.298;2023-02-19T08:12:59;101432.66;;;7.52;71.37
43621;BME280;29213;50.770;7.298;2023-02-19T08:15:45;101449.63;;;7.60;71.15
43621;BME280;29213;50.770;7.298;2023-02-19T08:18:12;101422.88;;;7.41;71.09
43621;BME280;29213;50.770;7.298;2023-02-19T08:20:38;101201.94;;;6.08;70.62
43621;BME280;29213;50.770;7.298;2023-02-19T08:23:04;101418.94;;;7.35;71.12
43621;BME280;29213;50.770;7.298;2023-02-19T08:25:30;101456.59;;;7.73;70.81
43621;BME280;29213;50.770;7.298;2023-02-19T08:27:56;101440.81;;;7.60;71.14
43621;BME280;29213;50.770;7.298;2023-02-19T08:30:21;101335.16;;;6.77;71.21
43621;BME280;29213;50.770;7.298;2023-02-19T08:32:47;101361.41;;;6.80;71.53
43621;BME280;29213;50.770;7.298;2023-02-19T08:35:12;101423.88;;;7.28;71.49
43621;BME280;29213;50.770;7.298;2023-02-19T08:37:38;101382.34;;;7.06;71.01
43621;BME280;29213;50.770;7.298;2023-02-19T08:40:03;101187.75;;;5.86;71.09
43621;BME280;29213;50.770;7.298;2023-02-19T08:42:29;101184.72;;;5.79;71.17
43621;BME280;29213;50.770;7.298;2023-02-19T08:44:54;101363.78;;;6.94;70.74
43621;BME280;29213;50.770;7.298;2023-02-19T08:47:20;101490.19;;;7.72;70.66
43621;BME280;29213;50.770;7.298;2023-02-19T08:49:45;101451.22;;;7.40;70.85
43621;BME280;29213;50.770;7.298;2023-02-19T08:52:11;101477.44;;;7.55;70.73
43621;BME280;29213;50.770;7.298;2023-02-19T08:54:36;101451.44;;;7.26;70.47
43621;BME280;29213;50.770;7.298;2023-02-19T08:57:02;101368.16;;;6.84;70.89
43621;BME280;29213;50.770;7.298;2023-02-19T08:59:29;101393.19;;;7.03;71.05
43621;BME280;29213;50.770;7.298;2023-02-19T09:01:57;101418.56;;;7.17;71.04
43621;BME280;29213;50.770;7.298;2023-02-19T09:04:22;101396.31;;;6.96;71.21
43621;BME280;29213;50.770;7.298;2023-02-19T09:06:48;101427.97;;;7.21;71.16
43621;BME280;29213;50.770;7.298;2023-02-19T09:09:13;101425.34;;;7.21;71.28
43621;BME280;29213;50.770;7.298;2023-02-19T09:11:39;101451.44;;;7.26;71.14
43621;BME280;29213;50.770;7.298;2023-02-19T09:14:04;101327.34;;;6.64;70.92
43621;BME280;29213;50.770;7.298;2023-02-19T09:16:35;101455.91;;;7.36;70.84
43621;BME280;29213;50.770;7.298;2023-02-19T09:19:01;101504.44;;;7.60;71.23
43621;BME280;29213;50.770;7.298;2023-02-19T09:21:27;101409.66;;;7.06;70.80
43621;BME280;29213;50.770;7.298;2023-02-19T09:23:52;101506.75;;;7.76;70.80
43621;BME280;29213;50.770;7.298;2023-02-19T09:26:17;101482.84;;;7.65;70.34
43621;BME280;29213;50.770;7.298;2023-02-19T09:28:43;101468.19;;;7.49;69.83
43621;BME280;29213;50.770;7.298;2023-02-19T09:31:13;101516.47;;;7.87;70.46
43621;BME280;29213;50.770;7.298;2023-02-19T09:33:44;101514.06;;;7.84;70.12
43621;BME280;29213;50.770;7.298;2023-02-19T09:36:10;101471.63;;;7.72;69.86
43621;BME280;29213;50.770;7.298;2023-02-19T09:38:36;101471.44;;;7.53;69.64
43621;BME280;29213;50.770;7.298;2023-02-19T09:41:14;101513.34;;;8.05;69.21
43621;BME280;29213;50.770;7.298;2023-02-19T09:43:41;101369.09;;;7.06;68.36
43621;BME280;29213;50.770;7.298;2023-02-19T09:46:22;101469.00;;;7.72;68.50
43621;BME280;29213;50.770;7.298;2023-02-19T09:48:48;101440.22;;;7.56;68.49
43621;BME280;29213;50.770;7.298;2023-02-19T09:51:15;101501.16;;;7.90;68.53
43621;BME280;29213;50.770;7.298;2023-02-19T09:53:43;101539.34;;;8.22;68.55
43621;BME280;29213;50.770;7.298;2023-02-19T09:56:10;101451.41;;;7.60;68.08
43621;BME280;29213;50.770;7.298;2023-02-19T09:58:45;101426.50;;;7.40;67.88
43621;BME280;29213;50.770;7.298;2023-02-19T10:01:11;101493.22;;;7.68;68.23
43621;BME280;29213;50.770;7.298;2023-02-19T10:03:38;101191.31;;;5.85;68.07
43621;BME280;29213;50.770;7.298;2023-02-19T10:06:26;101557.59;;;8.15;67.85
43621;BME280;29213;50.770;7.298;2023-02-19T10:09:21;101540.56;;;7.95;67.63
43621;BME280;29213;50.770;7.298;2023-02-19T10:11:48;101474.31;;;7.49;67.94
43621;BME280;29213;50.770;7.298;2023-02-19T10:14:37;101571.69;;;8.16;67.79
43621;BME280;29213;50.770;7.298;2023-02-19T10:17:04;101573.34;;;8.17;67.79
43621;BME280;29213;50.770;7.298;2023-02-19T10:19:33;101504.78;;;7.89;67.21
43621;BME280;29213;50.770;7.298;2023-02-19T10:22:02;101528.06;;;7.86;67.32
43621;BME280;29213;50.770;7.298;2023-02-19T10:24:28;101568.22;;;8.04;67.50
43621;BME280;29213;50.770;7.298;2023-02-19T10:26:54;101529.38;;;7.69;67.42
43621;BME280;29213;50.770;7.298;2023-02-19T10:29:21;101581.19;;;7.96;66.84
43621;BME280;29213;50.770;7.298;2023-02-19T10:31:48;101456.25;;;7.09;67.19
43621;BME280;29213;50.770;7.298;2023-02-19T10:34:19;101599.19;;;7.81;67.66
43621;BME280;29213;50.770;7.298;2023-02-19T10:36:46;101604.38;;;7.82;68.04
43621;BME280;29213;50.770;7.298;2023-02-19T10:41:50;101625.00;;;7.79;68.22
43621;BME280;29213;50.770;7.298;2023-02-19T10:44:30;101547.94;;;7.34;68.61
43621;BME280;29213;50.770;7.298;2023-02-19T10:46:59;101609.69;;;7.71;68.42
43621;BME280;29213;50.770;7.298;2023-02-19T10:49:35;101495.13;;;7.08;68.87
43621;BME280;29213;50.770;7.298;2023-02-19T10:52:12;101618.81;;;8.01;68.77
43621;BME280;29213;50.770;7.298;2023-02-19T10:54:45;101585.91;;;7.81;68.71
43621;BME280;29213;50.770;7.298;2023-02-19T10:59:48;101644.78;;;8.20;68.40
43621;BME280;29213;50.770;7.298;2023-02-19T11:02:16;101642.59;;;8.25;68.32
43621;BME280;29213;50.770;7.298;2023-02-19T11:05:01;101593.00;;;7.92;69.33
43621;BME280;29213;50.770;7.298;2023-02-19T11:07:27;101574.34;;;7.82;67.97
43621;BME280;29213;50.770;7.298;2023-02-19T11:09:52;101545.06;;;7.83;67.38
43621;BME280;29213;50.770;7.298;2023-02-19T11:12:36;101564.81;;;7.90;67.34
43621;BME280;29213;50.770;7.298;2023-02-19T11:15:26;101574.81;;;7.87;67.43
43621;BME280;29213;50.770;7.298;2023-02-19T11:17:58;101641.13;;;8.33;67.77
43621;BME280;29213;50.770;7.298;2023-02-19T11:20:24;101568.56;;;7.76;68.08
43621;BME280;29213;50.770;7.298;2023-02-19T11:22:50;101592.19;;;8.02;67.72
43621;BME280;29213;50.770;7.298;2023-02-19T11:27:59;101673.47;;;8.38;67.93
43621;BME280;29213;50.770;7.298;2023-02-19T11:32:54;101679.88;;;8.24;68.24
43621;BME280;29213;50.770;7.298;2023-02-19T11:35:22;101638.47;;;7.87;68.46
43621;BME280;29213;50.770;7.298;2023-02-19T11:37:59;101676.25;;;8.25;68.16
43621;BME280;29213;50.770;7.298;2023-02-19T11:46:20;101670.59;;;8.85;68.42
43621;BME280;29213;50.770;7.298;2023-02-19T11:48:50;101673.59;;;8.92;66.91
43621;BME280;29213;50.770;7.298;2023-02-19T11:51:42;101643.16;;;8.52;66.68
43621;BME280;29213;50.770;7.298;2023-02-19T11:54:32;101628.09;;;8.41;66.54
43621;BME280;29213;50.770;7.298;2023-02-19T11:57:32;101662.41;;;8.65;66.07
43621;BME280;29213;50.770;7.298;2023-02-19T12:00:27;101667.28;;;8.60;65.98
43621;BME280;29213;50.770;7.298;2023-02-19T12:09:17;101657.91;;;8.45;65.81
43621;BME280;29213;50.770;7.298;2023-02-19T12:12:27;101661.03;;;8.50;65.87
43621;BME280;29213;50.770;7.298;2023-02-19T12:15:18;101665.56;;;8.59;67.91
43621;BME280;29213;50.770;7.298;2023-02-19T12:17:55;101669.34;;;9.01;67.05
43621;BME280;29213;50.770;7.298;2023-02-19T12:37:29;101658.31;;;9.59;61.94
43621;BME280;29213;50.770;7.298;2023-02-19T12:43:18;101655.59;;;9.38;62.30
43621;BME280;29213;50.770;7.298;2023-02-19T12:45:52;101541.75;;;8.58;62.47
43621;BME280;29213;50.770;7.298;2023-02-19T12:48:32;101661.72;;;9.29;62.80
43621;BME280;29213;50.770;7.298;2023-02-19T12:51:05;101663.22;;;9.21;62.12
43621;BME280;29213;50.770;7.298;2023-02-19T12:53:43;101670.50;;;9.08;62.49
43621;BME280;29213;50.770;7.298;2023-02-19T12:56:16;101602.34;;;8.53;62.52
43621;BME280;29213;50.770;7.298;2023-02-19T12:58:47;101623.00;;;8.82;62.10
43621;BME280;29213;50.770;7.298;2023-02-19T13:01:14;101661.38;;;9.01;62.92
43621;BME280;29213;50.770;7.298;2023-02-19T13:03:49;101671.38;;;9.08;62.09
43621;BME280;29213;50.770;7.298;2023-02-19T13:06:25;101659.88;;;9.08;62.58
43621;BME280;29213;50.770;7.298;2023-02-19T13:09:01;101611.75;;;8.90;62.42
43621;BME280;29213;50.770;7.298;2023-02-19T13:11:32;101652.31;;;9.25;61.84
43621;BME280;29213;50.770;7.298;2023-02-19T13:14:07;101662.06;;;9.35;62.17
43621;BME280;29213;50.770;7.298;2023-02-19T13:16:41;101559.25;;;8.82;62.14
43621;BME280;29213;50.770;7.298;2023-02-19T13:19:09;101512.75;;;8.66;61.81
43621;BME280;29213;50.770;7.298;2023-02-19T13:21:39;101608.56;;;9.07;61.38
43621;BME280;29213;50.770;7.298;2023-02-19T13:24:28;101687.31;;;9.30;61.14
43621;BME280;29213;50.770;7.298;2023-02-19T13:30:07;101685.56;;;9.19;62.25
43621;BME280;29213;50.770;7.298;2023-02-19T13:38:15;101687.25;;;9.20;61.84
43621;BME280;29213;50.770;7.298;2023-02-19T13:40:42;101657.44;;;8.83;60.98
43621;BME280;29213;50.770;7.298;2023-02-19T13:43:34;101562.03;;;8.15;62.12
43621;BME280;29213;50.770;7.298;2023-02-19T13:46:06;101440.09;;;7.58;62.16
43621;BME280;29213;50.770;7.298;2023-02-19T13:48:35;101491.72;;;8.09;61.67
43621;BME280;29213;50.770;7.298;2023-02-19T13:59:22;101691.34;;;8.91;62.28
43621;BME280;29213;50.770;7.298;2023-02-19T14:12:17;101717.59;;;8.50;65.12
43621;BME280;29213;50.770;7.298;2023-02-19T14:17:39;101727.91;;;8.32;65.89
43621;BME280;29213;50.770;7.298;2023-02-19T14:27:49;101581.22;;;7.03;67.01
43621;BME280;29213;50.770;7.298;2023-02-19T14:30:16;101714.06;;;7.81;67.13
43621;BME280;29213;50.770;7.298;2023-02-19T14:32:42;101743.56;;;8.12;67.15
43621;BME280;29213;50.770;7.298;2023-02-19T14:35:39;101754.66;;;8.18;66.81
43621;BME280;29213;50.770;7.298;2023-02-19T14:38:05;101720.16;;;8.18;66.48
43621;BME280;29213;50.770;7.298;2023-02-19T14:40:38;101696.16;;;8.08;65.90
43621;BME280;29213;50.770;7.298;2023-02-19T14:43:05;101759.13;;;8.51;65.61
43621;BME280;29213;50.770;7.298;2023-02-19T14:45:42;101614.34;;;7.67;65.98
43621;BME280;29213;50.770;7.298;2023-02-19T14:48:25;101705.22;;;8.16;65.68
43621;BME280;29213;50.770;7.298;2023-02-19T14:50:58;101595.91;;;7.54;65.63
43621;BME280;29213;50.770;7.298;2023-02-19T14:53:27;101746.47;;;8.55;65.76